Chamberlain Brothers Ranch, WY

03:04 AM MDT die 29o March, anno 2017 (GMT -0600)
North Laramie Foothills | | Change Station

Elev 5272 ft 42.72 °N, 105.49 °W | Updated 1 minute ago

Plerumque Nubila
Plerumque Nubila
38.3 °F
Feels Like 38 °F
N
3.0
Ventus Variabilis Ventus from Magis Zephyrus quam Aquilo
Gusts 20.0 mph

Hodie
High -- | Low -- °F
--% Chance of Precip.
Yesterday
High -- | Low -- °F
Precip. -- in
Pressio 30.12 in
Visibilitas -9999.0 milia passuum
Clouds Plerumque Nubila 1700 ft
Aequaliter Nubila 3700 ft
Frigus Venti 38 °F
Frigus in quo Ros apparet 35 °F
Umor 88%
Rainfall 0.00 in
Snow Depth Not available.
6:49 AM 7:25 PM
New, 2% visible
METAR KDGW 290853Z AUTO 31004KT BKN017 OVC037 04/02 A3011 RMK AO2 SLP200 T00390022 58005
Pressio 30.12 in
Visibilitas -9999.0 milia passuum
Clouds Plerumque Nubila 1700 ft
Aequaliter Nubila 3700 ft
Frigus Venti 38 °F
Frigus in quo Ros apparet 35 °F
Umor 88%
Rainfall 0.00 in
Snow Depth Not available.
6:49 AM 7:25 PM
New, 2% visible
METAR KDGW 290853Z AUTO 31004KT BKN017 OVC037 04/02 A3011 RMK AO2 SLP200 T00390022 58005

Get Severe Weather Alerts

Thanks for signing up!

Be on the lookout for a verification email in your inbox.

You'll start receiving the daily forecast at 8 AM.

×

10-Day Weather Forecast

Almanac

Astronomy

Mar. 29, 2017 Rise Set
Actual Time
Civil Twilight
Nautical Twilight
Astronomical Twilight
Moon
Length Of Visible Light
Length of Day
Tomorrow will be .
, % of the Moon is Illuminated

Today's Extremes

State Highs State Lows

Community

WunderPhotos

Upload Photos

1,962,540 photos uploaded!

WunderBlog® & News

Nearby

Air Quality

  Air Quality AQ Index Pollutant
Not available.

Snow Depth

Station Depth Elevation

Earthquake Activity

City Distance Mag. Time & Date
Minimum magnitude displayed is 2.5.

Earthquake Activity

City Distance Mag. Time & Date
Minimum magnitude displayed is 2.5.

Coastal Water Temperatures

Locus Calor

Stations

Nearby Weather Stations

Station Location Temp Frigus Venti Frigus in quo Ros apparet Umor Ventus Precip. Elev Renovata Type
                   

Watches & Warnings

There are currently no watches in effect.